sensor_id;sensor_type;location;lat;lon;timestamp;pressure;altitude;pressure_sealevel;temperature;humidity
62458;BME280;48509;52.122;5.250;2023-06-26T00:02:14;101151.0;;;23.02;81.28
62458;BME280;48509;52.122;5.250;2023-06-26T00:03:50;101149.0;;;23.01;80.81
62458;BME280;48509;52.122;5.250;2023-06-26T00:05:26;101155.0;;;23.06;80.19
62458;BME280;48509;52.122;5.250;2023-06-26T00:08:40;101156.0;;;23.04;80.13
62458;BME280;48509;52.122;5.250;2023-06-26T00:10:17;101155.0;;;23.02;80.23
62458;BME280;48509;52.122;5.250;2023-06-26T00:11:53;101155.0;;;23.04;80.03
62458;BME280;48509;52.122;5.250;2023-06-26T00:13:29;101150.0;;;22.98;79.97
62458;BME280;48509;52.122;5.250;2023-06-26T00:16:43;101155.0;;;23.01;80.36
62458;BME280;48509;52.122;5.250;2023-06-26T00:18:19;101156.0;;;23.08;80.38
62458;BME280;48509;52.122;5.250;2023-06-26T00:19:55;101149.0;;;23.0;81.08
62458;BME280;48509;52.122;5.250;2023-06-26T00:23:11;101145.0;;;22.94;82.47
62458;BME280;48509;52.122;5.250;2023-06-26T00:24:48;101141.0;;;22.95;82.31
62458;BME280;48509;52.122;5.250;2023-06-26T00:26:25;101134.0;;;22.91;82.78
62458;BME280;48509;52.122;5.250;2023-06-26T00:28:02;101131.0;;;22.89;82.73
62458;BME280;48509;52.122;5.250;2023-06-26T00:31:15;101132.0;;;22.9;82.81
62458;BME280;48509;52.122;5.250;2023-06-26T00:32:51;101128.0;;;22.9;82.93
62458;BME280;48509;52.122;5.250;2023-06-26T00:34:27;101124.0;;;22.88;83.37
62458;BME280;48509;52.122;5.250;2023-06-26T00:37:40;101127.0;;;22.91;83.15
62458;BME280;48509;52.122;5.250;2023-06-26T00:39:16;101127.0;;;22.83;83.21
62458;BME280;48509;52.122;5.250;2023-06-26T00:40:53;101126.0;;;22.8;83.54
62458;BME280;48509;52.122;5.250;2023-06-26T00:44:05;101121.0;;;22.89;83.0
62458;BME280;48509;52.122;5.250;2023-06-26T00:45:42;101122.0;;;22.76;83.81
62458;BME280;48509;52.122;5.250;2023-06-26T00:47:18;101118.0;;;22.72;84.12
62458;BME280;48509;52.122;5.250;2023-06-26T00:48:55;101117.0;;;22.65;85.08
62458;BME280;48509;52.122;5.250;2023-06-26T00:52:11;101123.0;;;22.65;84.62
62458;BME280;48509;52.122;5.250;2023-06-26T00:53:48;101126.0;;;22.61;83.71
62458;BME280;48509;52.122;5.250;2023-06-26T00:55:25;101136.0;;;22.7;83.0
62458;BME280;48509;52.122;5.250;2023-06-26T00:58:40;101138.0;;;22.65;82.44
62458;BME280;48509;52.122;5.250;2023-06-26T01:00:17;101140.0;;;22.61;82.34
62458;BME280;48509;52.122;5.250;2023-06-26T01:01:54;101150.0;;;22.63;82.64
62458;BME280;48509;52.122;5.250;2023-06-26T01:05:07;101153.0;;;22.67;82.67
62458;BME280;48509;52.122;5.250;2023-06-26T01:06:45;101161.0;;;22.66;81.86
62458;BME280;48509;52.122;5.250;2023-06-26T01:08:22;101153.0;;;22.82;78.52
62458;BME280;48509;52.122;5.250;2023-06-26T01:10:00;101152.0;;;23.07;77.12
62458;BME280;48509;52.122;5.250;2023-06-26T01:13:14;101151.0;;;23.23;75.08
62458;BME280;48509;52.122;5.250;2023-06-26T01:14:51;101151.0;;;23.41;74.14
62458;BME280;48509;52.122;5.250;2023-06-26T01:16:29;101160.0;;;23.56;73.36
62458;BME280;48509;52.122;5.250;2023-06-26T01:19:43;101162.0;;;23.62;74.02
62458;BME280;48509;52.122;5.250;2023-06-26T01:21:20;101169.0;;;23.72;72.27
62458;BME280;48509;52.122;5.250;2023-06-26T01:23:04;101175.0;;;23.75;72.27
62458;BME280;48509;52.122;5.250;2023-06-26T01:24:54;101177.0;;;23.65;72.24
62458;BME280;48509;52.122;5.250;2023-06-26T01:26:39;101180.0;;;23.74;72.25
62458;BME280;48509;52.122;5.250;2023-06-26T01:29:55;101182.0;;;23.68;71.52
62458;BME280;48509;52.122;5.250;2023-06-26T01:31:32;101185.0;;;23.72;71.5
62458;BME280;48509;52.122;5.250;2023-06-26T01:33:10;101186.0;;;23.75;71.69
62458;BME280;48509;52.122;5.250;2023-06-26T01:36:27;101181.0;;;23.72;71.77
62458;BME280;48509;52.122;5.250;2023-06-26T01:38:13;101184.0;;;23.72;71.98
62458;BME280;48509;52.122;5.250;2023-06-26T01:39:52;101182.0;;;23.71;71.98
62458;BME280;48509;52.122;5.250;2023-06-26T01:41:28;101182.0;;;23.74;71.47
62458;BME280;48509;52.122;5.250;2023-06-26T01:44:52;101184.0;;;23.69;71.78
62458;BME280;48509;52.122;5.250;2023-06-26T01:46:40;101181.0;;;23.66;71.55
62458;BME280;48509;52.122;5.250;2023-06-26T01:48:25;101178.0;;;23.65;71.41
62458;BME280;48509;52.122;5.250;2023-06-26T01:50:07;101176.0;;;23.52;72.08
62458;BME280;48509;52.122;5.250;2023-06-26T01:51:49;101180.0;;;23.49;72.59
62458;BME280;48509;52.122;5.250;2023-06-26T01:55:23;101180.0;;;23.44;73.12
62458;BME280;48509;52.122;5.250;2023-06-26T01:57:04;101180.0;;;23.4;72.61
62458;BME280;48509;52.122;5.250;2023-06-26T01:58:44;101184.0;;;23.41;72.69
62458;BME280;48509;52.122;5.250;2023-06-26T02:00:22;101181.0;;;23.44;72.22
62458;BME280;48509;52.122;5.250;2023-06-26T02:03:37;101180.0;;;23.46;72.25
62458;BME280;48509;52.122;5.250;2023-06-26T02:05:14;101192.0;;;23.37;72.62
62458;BME280;48509;52.122;5.250;2023-06-26T02:06:50;101193.0;;;23.38;72.83
62458;BME280;48509;52.122;5.250;2023-06-26T02:08:27;101187.0;;;23.26;73.45
62458;BME280;48509;52.122;5.250;2023-06-26T02:11:42;101184.0;;;23.24;73.77
62458;BME280;48509;52.122;5.250;2023-06-26T02:13:18;101188.0;;;23.16;74.12
62458;BME280;48509;52.122;5.250;2023-06-26T02:14:55;101190.0;;;23.12;74.59
62458;BME280;48509;52.122;5.250;2023-06-26T02:18:08;101183.0;;;23.02;75.41
62458;BME280;48509;52.122;5.250;2023-06-26T02:19:44;101188.0;;;22.96;75.69
62458;BME280;48509;52.122;5.250;2023-06-26T02:21:20;101186.0;;;22.8;76.49
62458;BME280;48509;52.122;5.250;2023-06-26T02:24:32;101188.0;;;22.92;76.73
62458;BME280;48509;52.122;5.250;2023-06-26T02:27:44;101182.0;;;22.83;77.11
62458;BME280;48509;52.122;5.250;2023-06-26T02:29:21;101186.0;;;22.9;76.92
62458;BME280;48509;52.122;5.250;2023-06-26T02:32:33;101197.0;;;22.63;78.28
62458;BME280;48509;52.122;5.250;2023-06-26T02:34:09;101197.0;;;22.79;78.19
62458;BME280;48509;52.122;5.250;2023-06-26T02:35:45;101198.0;;;22.76;78.27
62458;BME280;48509;52.122;5.250;2023-06-26T02:38:59;101200.0;;;22.71;78.27
62458;BME280;48509;52.122;5.250;2023-06-26T02:40:35;101200.0;;;22.83;77.94
62458;BME280;48509;52.122;5.250;2023-06-26T02:42:11;101197.0;;;22.6;78.84
62458;BME280;48509;52.122;5.250;2023-06-26T02:45:24;101203.0;;;22.7;78.77
62458;BME280;48509;52.122;5.250;2023-06-26T02:47:01;101201.0;;;22.54;79.5
62458;BME280;48509;52.122;5.250;2023-06-26T02:48:37;101209.0;;;22.51;79.84
62458;BME280;48509;52.122;5.250;2023-06-26T02:51:51;101201.0;;;22.58;79.47
62458;BME280;48509;52.122;5.250;2023-06-26T02:53:27;101205.0;;;22.54;79.74
62458;BME280;48509;52.122;5.250;2023-06-26T02:55:05;101209.0;;;22.57;79.99
62458;BME280;48509;52.122;5.250;2023-06-26T02:56:41;101213.0;;;22.69;79.24
62458;BME280;48509;52.122;5.250;2023-06-26T02:59:55;101217.0;;;22.72;79.39
62458;BME280;48509;52.122;5.250;2023-06-26T03:01:31;101216.0;;;22.56;79.89
62458;BME280;48509;52.122;5.250;2023-06-26T03:03:08;101213.0;;;22.54;80.28
62458;BME280;48509;52.122;5.250;2023-06-26T03:06:22;101216.0;;;22.57;80.39
62458;BME280;48509;52.122;5.250;2023-06-26T03:07:58;101217.0;;;22.43;80.69
62458;BME280;48509;52.122;5.250;2023-06-26T03:09:34;101214.0;;;22.41;81.02
62458;BME280;48509;52.122;5.250;2023-06-26T03:11:11;101217.0;;;22.42;81.66
62458;BME280;48509;52.122;5.250;2023-06-26T03:14:25;101224.0;;;22.4;81.3
62458;BME280;48509;52.122;5.250;2023-06-26T03:16:03;101227.0;;;22.51;81.0
62458;BME280;48509;52.122;5.250;2023-06-26T03:17:40;101222.0;;;22.59;80.7
62458;BME280;48509;52.122;5.250;2023-06-26T03:20:53;101223.0;;;22.42;81.02
62458;BME280;48509;52.122;5.250;2023-06-26T03:22:32;101223.0;;;22.57;80.72
62458;BME280;48509;52.122;5.250;2023-06-26T03:24:09;101220.0;;;22.32;80.62
62458;BME280;48509;52.122;5.250;2023-06-26T03:27:22;101227.0;;;22.4;80.24
62458;BME280;48509;52.122;5.250;2023-06-26T03:29:00;101231.0;;;22.19;80.97
62458;BME280;48509;52.122;5.250;2023-06-26T03:30:37;101231.0;;;22.22;80.92
62458;BME280;48509;52.122;5.250;2023-06-26T03:32:14;101234.0;;;22.17;81.17
62458;BME280;48509;52.122;5.250;2023-06-26T03:35:27;101221.0;;;22.24;80.34
62458;BME280;48509;52.122;5.250;2023-06-26T03:37:05;101230.0;;;22.08;82.13
62458;BME280;48509;52.122;5.250;2023-06-26T03:38:42;101236.0;;;21.97;82.19
62458;BME280;48509;52.122;5.250;2023-06-26T03:41:55;101249.0;;;22.01;81.12
62458;BME280;48509;52.122;5.250;2023-06-26T03:43:32;101256.0;;;21.88;81.72
62458;BME280;48509;52.122;5.250;2023-06-26T03:45:08;101255.0;;;21.83;81.87
62458;BME280;48509;52.122;5.250;2023-06-26T03:46:44;101252.0;;;21.78;82.46
62458;BME280;48509;52.122;5.250;2023-06-26T03:49:58;101255.0;;;21.85;81.74
62458;BME280;48509;52.122;5.250;2023-06-26T03:51:35;101253.0;;;21.85;81.8
62458;BME280;48509;52.122;5.250;2023-06-26T03:53:11;101259.0;;;21.8;82.4
62458;BME280;48509;52.122;5.250;2023-06-26T03:56:25;101263.0;;;21.77;82.55
62458;BME280;48509;52.122;5.250;2023-06-26T03:58:02;101259.0;;;21.72;82.45
62458;BME280;48509;52.122;5.250;2023-06-26T03:59:40;101260.0;;;21.71;82.46
62458;BME280;48509;52.122;5.250;2023-06-26T04:02:53;101268.0;;;21.55;82.95
62458;BME280;48509;52.122;5.250;2023-06-26T04:04:30;101266.0;;;21.65;82.6
62458;BME280;48509;52.122;5.250;2023-06-26T04:06:06;101270.0;;;21.59;83.08
62458;BME280;48509;52.122;5.250;2023-06-26T04:07:43;101270.0;;;21.53;83.36
62458;BME280;48509;52.122;5.250;2023-06-26T04:10:55;101270.0;;;21.68;82.57
62458;BME280;48509;52.122;5.250;2023-06-26T04:12:32;101270.0;;;21.66;82.57
62458;BME280;48509;52.122;5.250;2023-06-26T04:14:10;101271.0;;;21.56;82.77
62458;BME280;48509;52.122;5.250;2023-06-26T04:17:23;101275.0;;;21.5;83.42
62458;BME280;48509;52.122;5.250;2023-06-26T04:19:00;101281.0;;;21.45;83.79
62458;BME280;48509;52.122;5.250;2023-06-26T04:20:39;101276.0;;;21.43;83.87
62458;BME280;48509;52.122;5.250;2023-06-26T04:23:52;101276.0;;;21.47;83.27
62458;BME280;48509;52.122;5.250;2023-06-26T04:25:29;101287.0;;;21.28;84.01
62458;BME280;48509;52.122;5.250;2023-06-26T04:27:05;101291.0;;;21.29;84.54
62458;BME280;48509;52.122;5.250;2023-06-26T04:28:43;101289.0;;;21.27;84.81
62458;BME280;48509;52.122;5.250;2023-06-26T04:31:57;101294.0;;;21.26;84.28
62458;BME280;48509;52.122;5.250;2023-06-26T04:33:33;101294.0;;;21.24;84.51
62458;BME280;48509;52.122;5.250;2023-06-26T04:35:10;101294.0;;;21.21;84.27
62458;BME280;48509;52.122;5.250;2023-06-26T04:38:24;101302.0;;;21.2;83.91
62458;BME280;48509;52.122;5.250;2023-06-26T04:40:01;101305.0;;;21.29;83.53
62458;BME280;48509;52.122;5.250;2023-06-26T04:41:37;101315.0;;;21.35;83.09
62458;BME280;48509;52.122;5.250;2023-06-26T04:43:14;101315.0;;;21.3;82.1
62458;BME280;48509;52.122;5.250;2023-06-26T04:46:28;101319.0;;;21.34;82.76
62458;BME280;48509;52.122;5.250;2023-06-26T04:48:05;101326.0;;;21.29;82.83
62458;BME280;48509;52.122;5.250;2023-06-26T04:49:42;101334.0;;;21.27;82.61
62458;BME280;48509;52.122;5.250;2023-06-26T04:52:54;101332.0;;;21.31;82.54
62458;BME280;48509;52.122;5.250;2023-06-26T04:54:31;101327.0;;;21.38;81.61
62458;BME280;48509;52.122;5.250;2023-06-26T04:56:07;101331.0;;;21.38;81.55
62458;BME280;48509;52.122;5.250;2023-06-26T04:59:20;101336.0;;;21.43;81.66
62458;BME280;48509;52.122;5.250;2023-06-26T05:00:56;101335.0;;;21.48;81.45
62458;BME280;48509;52.122;5.250;2023-06-26T05:02:33;101334.0;;;21.4;82.11
62458;BME280;48509;52.122;5.250;2023-06-26T05:04:10;101339.0;;;21.4;81.73
62458;BME280;48509;52.122;5.250;2023-06-26T05:07:25;101336.0;;;21.46;81.19
62458;BME280;48509;52.122;5.250;2023-06-26T05:09:02;101339.0;;;21.38;81.61
62458;BME280;48509;52.122;5.250;2023-06-26T05:10:39;101343.0;;;21.33;81.77
62458;BME280;48509;52.122;5.250;2023-06-26T05:13:52;101351.0;;;21.28;81.8
62458;BME280;48509;52.122;5.250;2023-06-26T05:15:29;101350.0;;;21.06;82.96
62458;BME280;48509;52.122;5.250;2023-06-26T05:17:06;101346.0;;;21.04;83.29
62458;BME280;48509;52.122;5.250;2023-06-26T05:20:20;101355.0;;;21.2;82.95
62458;BME280;48509;52.122;5.250;2023-06-26T05:21:58;101352.0;;;21.27;82.24
62458;BME280;48509;52.122;5.250;2023-06-26T05:23:37;101355.0;;;21.27;82.37
62458;BME280;48509;52.122;5.250;2023-06-26T05:25:14;101360.0;;;21.41;81.73
62458;BME280;48509;52.122;5.250;2023-06-26T05:28:29;101357.0;;;21.24;82.34
62458;BME280;48509;52.122;5.250;2023-06-26T05:30:07;101360.0;;;21.4;81.63
62458;BME280;48509;52.122;5.250;2023-06-26T05:31:45;101360.0;;;21.42;81.41
62458;BME280;48509;52.122;5.250;2023-06-26T05:33:26;101364.0;;;21.41;80.95
62458;BME280;48509;52.122;5.250;2023-06-26T05:36:42;101365.0;;;21.48;80.14
62458;BME280;48509;52.122;5.250;2023-06-26T05:38:19;101375.0;;;21.48;81.02
62458;BME280;48509;52.122;5.250;2023-06-26T05:39:57;101377.0;;;21.4;79.95
62458;BME280;48509;52.122;5.250;2023-06-26T05:43:11;101380.0;;;21.5;79.97
62458;BME280;48509;52.122;5.250;2023-06-26T05:44:48;101378.0;;;21.48;79.44
62458;BME280;48509;52.122;5.250;2023-06-26T05:46:24;101381.0;;;21.5;79.47
62458;BME280;48509;52.122;5.250;2023-06-26T05:49:38;101380.0;;;21.48;79.14
62458;BME280;48509;52.122;5.250;2023-06-26T05:51:16;101391.0;;;21.49;79.33
62458;BME280;48509;52.122;5.250;2023-06-26T05:52:53;101393.0;;;21.48;79.33
62458;BME280;48509;52.122;5.250;2023-06-26T05:54:31;101400.0;;;21.39;78.52
62458;BME280;48509;52.122;5.250;2023-06-26T05:57:46;101405.0;;;21.47;78.74
62458;BME280;48509;52.122;5.250;2023-06-26T05:59:24;101406.0;;;21.39;78.13
62458;BME280;48509;52.122;5.250;2023-06-26T06:01:00;101410.0;;;21.49;78.41
62458;BME280;48509;52.122;5.250;2023-06-26T06:04:15;101413.0;;;21.51;78.98
62458;BME280;48509;52.122;5.250;2023-06-26T06:05:51;101423.0;;;21.52;77.47
62458;BME280;48509;52.122;5.250;2023-06-26T06:07:27;101422.0;;;21.5;77.91
62458;BME280;48509;52.122;5.250;2023-06-26T06:09:03;101422.0;;;21.57;77.3
62458;BME280;48509;52.122;5.250;2023-06-26T06:12:17;101427.0;;;21.58;78.27
62458;BME280;48509;52.122;5.250;2023-06-26T06:13:54;101430.0;;;21.56;78.06
62458;BME280;48509;52.122;5.250;2023-06-26T06:15:30;101430.0;;;21.48;78.72
62458;BME280;48509;52.122;5.250;2023-06-26T06:18:45;101437.0;;;21.55;77.69
62458;BME280;48509;52.122;5.250;2023-06-26T06:20:22;101439.0;;;21.56;77.69
62458;BME280;48509;52.122;5.250;2023-06-26T06:21:59;101442.0;;;21.56;78.02
62458;BME280;48509;52.122;5.250;2023-06-26T06:25:13;101441.0;;;21.6;78.22
62458;BME280;48509;52.122;5.250;2023-06-26T06:26:50;101440.0;;;21.68;78.8
62458;BME280;48509;52.122;5.250;2023-06-26T06:28:27;101437.0;;;21.72;77.88
62458;BME280;48509;52.122;5.250;2023-06-26T06:30:05;101446.0;;;21.76;77.44
62458;BME280;48509;52.122;5.250;2023-06-26T06:33:18;101453.0;;;21.61;78.19
62458;BME280;48509;52.122;5.250;2023-06-26T06:34:56;101464.0;;;21.45;78.77
62458;BME280;48509;52.122;5.250;2023-06-26T06:36:33;101483.0;;;21.36;79.11
62458;BME280;48509;52.122;5.250;2023-06-26T06:39:46;101476.0;;;21.44;79.47
62458;BME280;48509;52.122;5.250;2023-06-26T06:41:23;101473.0;;;21.55;79.64
62458;BME280;48509;52.122;5.250;2023-06-26T06:43:00;101484.0;;;21.8;78.72
62458;BME280;48509;52.122;5.250;2023-06-26T06:44:38;101489.0;;;21.75;77.72
62458;BME280;48509;52.122;5.250;2023-06-26T06:47:50;101495.0;;;21.89;77.77
62458;BME280;48509;52.122;5.250;2023-06-26T06:49:27;101493.0;;;21.96;77.34
62458;BME280;48509;52.122;5.250;2023-06-26T06:51:04;101498.0;;;21.95;77.66
62458;BME280;48509;52.122;5.250;2023-06-26T06:54:19;101505.0;;;21.91;77.52
62458;BME280;48509;52.122;5.250;2023-06-26T06:55:56;101498.0;;;21.7;78.25
62458;BME280;48509;52.122;5.250;2023-06-26T06:57:34;101494.0;;;21.6;79.08
62458;BME280;48509;52.122;5.250;2023-06-26T07:00:49;101493.0;;;21.56;79.36
62458;BME280;48509;52.122;5.250;2023-06-26T07:02:27;101509.0;;;21.53;79.62
62458;BME280;48509;52.122;5.250;2023-06-26T07:04:03;101499.0;;;21.63;79.61
62458;BME280;48509;52.122;5.250;2023-06-26T07:05:41;101510.0;;;21.81;79.66
62458;BME280;48509;52.122;5.250;2023-06-26T07:08:54;101500.0;;;21.64;78.91
62458;BME280;48509;52.122;5.250;2023-06-26T07:10:31;101511.0;;;21.75;77.66
62458;BME280;48509;52.122;5.250;2023-06-26T07:12:08;101518.0;;;21.73;78.7
62458;BME280;48509;52.122;5.250;2023-06-26T07:15:22;101514.0;;;21.65;77.52
62458;BME280;48509;52.122;5.250;2023-06-26T07:16:59;101530.0;;;21.59;78.05
62458;BME280;48509;52.122;5.250;2023-06-26T07:18:36;101525.0;;;21.52;78.09
62458;BME280;48509;52.122;5.250;2023-06-26T07:20:13;101530.0;;;21.59;77.95
62458;BME280;48509;52.122;5.250;2023-06-26T07:23:27;101527.0;;;21.72;77.3
62458;BME280;48509;52.122;5.250;2023-06-26T07:25:03;101530.0;;;21.71;77.33
62458;BME280;48509;52.122;5.250;2023-06-26T07:26:40;101523.0;;;21.66;77.2
62458;BME280;48509;52.122;5.250;2023-06-26T07:29:54;101526.0;;;21.63;77.41
62458;BME280;48509;52.122;5.250;2023-06-26T07:31:31;101526.0;;;21.63;77.16
62458;BME280;48509;52.122;5.250;2023-06-26T07:33:08;101524.0;;;21.65;77.23
62458;BME280;48509;52.122;5.250;2023-06-26T07:34:45;101541.0;;;21.66;77.22
62458;BME280;48509;52.122;5.250;2023-06-26T07:37:59;101545.0;;;21.67;77.33
62458;BME280;48509;52.122;5.250;2023-06-26T07:39:36;101534.0;;;21.7;76.22
62458;BME280;48509;52.122;5.250;2023-06-26T07:41:14;101542.0;;;21.87;75.78
62458;BME280;48509;52.122;5.250;2023-06-26T07:44:27;101541.0;;;21.94;75.53
62458;BME280;48509;52.122;5.250;2023-06-26T07:46:04;101549.0;;;21.85;75.39
62458;BME280;48509;52.122;5.250;2023-06-26T07:47:41;101551.0;;;21.88;75.34
62458;BME280;48509;52.122;5.250;2023-06-26T07:50:55;101552.0;;;21.7;76.02
62458;BME280;48509;52.122;5.250;2023-06-26T07:52:32;101553.0;;;21.66;76.5
62458;BME280;48509;52.122;5.250;2023-06-26T07:54:10;101553.0;;;21.71;76.12
62458;BME280;48509;52.122;5.250;2023-06-26T07:55:47;101565.0;;;21.84;75.87
62458;BME280;48509;52.122;5.250;2023-06-26T07:59:02;101568.0;;;21.97;75.81
62458;BME280;48509;52.122;5.250;2023-06-26T08:00:40;101559.0;;;21.98;74.89
62458;BME280;48509;52.122;5.250;2023-06-26T08:02:16;101556.0;;;22.04;74.99
62458;BME280;48509;52.122;5.250;2023-06-26T08:05:30;101558.0;;;21.95;74.55
62458;BME280;48509;52.122;5.250;2023-06-26T08:07:06;101560.0;;;21.92;73.81
62458;BME280;48509;52.122;5.250;2023-06-26T08:08:43;101563.0;;;21.97;74.27
62458;BME280;48509;52.122;5.250;2023-06-26T08:10:20;101567.0;;;22.14;73.84
62458;BME280;48509;52.122;5.250;2023-06-26T08:13:35;101569.0;;;22.28;72.55
62458;BME280;48509;52.122;5.250;2023-06-26T08:15:12;101566.0;;;22.17;71.48
62458;BME280;48509;52.122;5.250;2023-06-26T08:16:49;101570.0;;;22.1;71.41
62458;BME280;48509;52.122;5.250;2023-06-26T08:20:03;101570.0;;;21.98;71.91
62458;BME280;48509;52.122;5.250;2023-06-26T08:21:40;101578.0;;;21.94;72.56
62458;BME280;48509;52.122;5.250;2023-06-26T08:23:17;101576.0;;;21.9;72.56
62458;BME280;48509;52.122;5.250;2023-06-26T08:26:30;101582.0;;;21.93;72.36
62458;BME280;48509;52.122;5.250;2023-06-26T08:28:07;101570.0;;;22.08;71.75
62458;BME280;48509;52.122;5.250;2023-06-26T08:29:44;101577.0;;;22.3;71.91
62458;BME280;48509;52.122;5.250;2023-06-26T08:31:21;101584.0;;;22.33;71.16
62458;BME280;48509;52.122;5.250;2023-06-26T08:34:35;101580.0;;;22.49;71.03
62458;BME280;48509;52.122;5.250;2023-06-26T08:36:12;101588.0;;;22.47;69.61
62458;BME280;48509;52.122;5.250;2023-06-26T08:37:49;101607.0;;;22.27;68.59
62458;BME280;48509;52.122;5.250;2023-06-26T08:41:02;101602.0;;;22.09;69.41
62458;BME280;48509;52.122;5.250;2023-06-26T08:42:39;101595.0;;;22.17;69.16
62458;BME280;48509;52.122;5.250;2023-06-26T08:44:16;101605.0;;;22.12;69.33
62458;BME280;48509;52.122;5.250;2023-06-26T08:45:53;101599.0;;;22.09;67.53
62458;BME280;48509;52.122;5.250;2023-06-26T08:49:14;101601.0;;;22.1;68.52
62458;BME280;48509;52.122;5.250;2023-06-26T08:50:57;101607.0;;;21.92;68.72
62458;BME280;48509;52.122;5.250;2023-06-26T08:52:37;101602.0;;;21.96;69.13
62458;BME280;48509;52.122;5.250;2023-06-26T08:54:23;101600.0;;;22.09;68.97
62458;BME280;48509;52.122;5.250;2023-06-26T08:57:43;101606.0;;;22.19;69.53
62458;BME280;48509;52.122;5.250;2023-06-26T08:59:21;101628.0;;;22.13;67.81
62458;BME280;48509;52.122;5.250;2023-06-26T09:00:57;101617.0;;;22.07;67.8
62458;BME280;48509;52.122;5.250;2023-06-26T09:02:37;101618.0;;;22.05;69.08
62458;BME280;48509;52.122;5.250;2023-06-26T09:07:29;101631.0;;;22.27;66.86
62458;BME280;48509;52.122;5.250;2023-06-26T09:09:06;101632.0;;;22.22;66.73
62458;BME280;48509;52.122;5.250;2023-06-26T09:12:21;101619.0;;;22.29;66.23
62458;BME280;48509;52.122;5.250;2023-06-26T09:13:59;101631.0;;;22.24;66.05
62458;BME280;48509;52.122;5.250;2023-06-26T09:15:39;101645.0;;;22.39;65.41
62458;BME280;48509;52.122;5.250;2023-06-26T09:17:17;101641.0;;;22.48;65.14
62458;BME280;48509;52.122;5.250;2023-06-26T09:20:31;101642.0;;;22.38;65.42
62458;BME280;48509;52.122;5.250;2023-06-26T09:22:11;101641.0;;;22.33;65.72
62458;BME280;48509;52.122;5.250;2023-06-26T09:23:50;101639.0;;;22.45;66.55
62458;BME280;48509;52.122;5.250;2023-06-26T09:27:04;101645.0;;;22.35;65.41
62458;BME280;48509;52.122;5.250;2023-06-26T09:28:42;101658.0;;;22.41;65.38
62458;BME280;48509;52.122;5.250;2023-06-26T09:30:20;101657.0;;;22.44;64.8
62458;BME280;48509;52.122;5.250;2023-06-26T09:31:56;101664.0;;;22.43;64.47
62458;BME280;48509;52.122;5.250;2023-06-26T09:35:14;101662.0;;;22.43;63.58
62458;BME280;48509;52.122;5.250;2023-06-26T09:36:53;101660.0;;;22.38;64.24
62458;BME280;48509;52.122;5.250;2023-06-26T09:38:30;101655.0;;;22.57;63.82
62458;BME280;48509;52.122;5.250;2023-06-26T09:41:45;101655.0;;;22.71;63.48
62458;BME280;48509;52.122;5.250;2023-06-26T09:43:22;101663.0;;;22.48;62.52
62458;BME280;48509;52.122;5.250;2023-06-26T09:44:59;101667.0;;;22.32;62.58
62458;BME280;48509;52.122;5.250;2023-06-26T09:46:37;101680.0;;;22.4;62.18
62458;BME280;48509;52.122;5.250;2023-06-26T09:49:51;101677.0;;;22.37;61.89
62458;BME280;48509;52.122;5.250;2023-06-26T09:51:29;101673.0;;;22.31;61.56
62458;BME280;48509;52.122;5.250;2023-06-26T09:53:07;101678.0;;;22.39;61.95
62458;BME280;48509;52.122;5.250;2023-06-26T09:56:22;101680.0;;;22.41;61.32
62458;BME280;48509;52.122;5.250;2023-06-26T09:58:00;101672.0;;;22.35;61.85
62458;BME280;48509;52.122;5.250;2023-06-26T09:59:39;101688.0;;;22.57;61.74
62458;BME280;48509;52.122;5.250;2023-06-26T10:01:17;101691.0;;;22.43;60.59
62458;BME280;48509;52.122;5.250;2023-06-26T10:04:32;101686.0;;;22.35;60.66
62458;BME280;48509;52.122;5.250;2023-06-26T10:06:11;101705.0;;;22.55;61.71
62458;BME280;48509;52.122;5.250;2023-06-26T10:07:48;101695.0;;;22.66;60.69
62458;BME280;48509;52.122;5.250;2023-06-26T10:11:03;101698.0;;;22.57;59.63
62458;BME280;48509;52.122;5.250;2023-06-26T10:12:40;101712.0;;;22.62;60.4
62458;BME280;48509;52.122;5.250;2023-06-26T10:14:23;101703.0;;;22.63;59.82
62458;BME280;48509;52.122;5.250;2023-06-26T10:16:03;101721.0;;;22.69;59.7
62458;BME280;48509;52.122;5.250;2023-06-26T10:19:23;101718.0;;;22.6;59.64
62458;BME280;48509;52.122;5.250;2023-06-26T10:21:01;101706.0;;;22.59;58.67
62458;BME280;48509;52.122;5.250;2023-06-26T10:22:42;101716.0;;;22.65;58.0
62458;BME280;48509;52.122;5.250;2023-06-26T10:24:20;101720.0;;;22.76;59.13
62458;BME280;48509;52.122;5.250;2023-06-26T10:27:42;101725.0;;;22.58;58.52
62458;BME280;48509;52.122;5.250;2023-06-26T10:29:20;101726.0;;;22.53;57.81
62458;BME280;48509;52.122;5.250;2023-06-26T10:31:00;101726.0;;;22.4;58.69
62458;BME280;48509;52.122;5.250;2023-06-26T10:32:39;101730.0;;;22.47;58.87
62458;BME280;48509;52.122;5.250;2023-06-26T10:36:12;101724.0;;;22.54;58.45
62458;BME280;48509;52.122;5.250;2023-06-26T10:37:50;101719.0;;;22.61;57.41
62458;BME280;48509;52.122;5.250;2023-06-26T10:39:32;101739.0;;;22.73;57.76
62458;BME280;48509;52.122;5.250;2023-06-26T10:41:23;101724.0;;;22.65;57.52
62458;BME280;48509;52.122;5.250;2023-06-26T10:44:47;101718.0;;;22.62;58.63
62458;BME280;48509;52.122;5.250;2023-06-26T10:46:24;101731.0;;;22.63;58.68
62458;BME280;48509;52.122;5.250;2023-06-26T10:48:04;101738.0;;;22.71;57.78
62458;BME280;48509;52.122;5.250;2023-06-26T10:49:46;101735.0;;;22.66;57.92
62458;BME280;48509;52.122;5.250;2023-06-26T10:51:23;101732.0;;;22.66;59.35
62458;BME280;48509;52.122;5.250;2023-06-26T10:55:00;101743.0;;;22.66;58.27
62458;BME280;48509;52.122;5.250;2023-06-26T10:56:42;101744.0;;;22.7;58.49
62458;BME280;48509;52.122;5.250;2023-06-26T10:58:42;101748.0;;;22.91;59.41
62458;BME280;48509;52.122;5.250;2023-06-26T11:00:19;101737.0;;;22.94;55.91
62458;BME280;48509;52.122;5.250;2023-06-26T11:02:00;101743.0;;;23.21;57.25
62458;BME280;48509;52.122;5.250;2023-06-26T11:05:24;101749.0;;;23.23;55.61
62458;BME280;48509;52.122;5.250;2023-06-26T11:07:16;101761.0;;;23.06;55.58
62458;BME280;48509;52.122;5.250;2023-06-26T11:09:01;101763.0;;;23.01;55.91
62458;BME280;48509;52.122;5.250;2023-06-26T11:10:48;101756.0;;;22.99;55.42